Time;durP1;ratioP1;P1;durP2;ratioP2;P2;SDS_P1;SDS_P2;PMS_P1;PMS_P2;Temp;Humidity;BMP_temperature;BMP_pressure;BME280_temperature;BME280_humidity;BME280_pressure;Samples;Min_cycle;Max_cycle;Signal;HPM_P1;HPM_P2
2022/01/29 17:56:02;;;;;;;6.65;6.05;;;18.00;99.90;;;;;;352889;27;20851;-71
2022/01/29 17:56:13;;;;;;;6.80;5.80;;;18.00;99.90;;;;;;347201;27;10025;-72
2022/01/29 17:56:24;;;;;;;7.40;6.00;;;18.00;99.90;;;;;;349518;28;1074;-75
2022/01/29 17:56:35;;;;;;;7.13;5.82;;;18.10;99.90;;;;;;349483;28;1051;-75
2022/01/29 17:56:46;;;;;;;6.30;5.78;;;18.10;99.90;;;;;;349436;28;1722;-76
2022/01/29 17:56:57;;;;;;;6.35;5.75;;;18.10;99.90;;;;;;349368;28;1642;-76
2022/01/29 17:57:09;;;;;;;6.80;5.55;;;18.20;99.90;;;;;;349361;28;1619;-75
2022/01/29 17:57:21;;;;;;;7.15;5.60;;;18.20;99.90;;;;;;349311;28;1409;-75
2022/01/29 17:57:31;;;;;;;7.10;5.80;;;18.20;99.90;;;;;;349451;28;1757;-76
2022/01/29 17:57:43;;;;;;;6.82;6.22;;;18.20;99.90;;;;;;349412;28;1535;-75
2022/01/29 17:57:53;;;;;;;6.50;5.95;;;18.20;99.90;;;;;;349335;28;1646;-70
2022/01/29 17:58:06;;;;;;;6.57;6.00;;;18.30;99.90;;;;;;349281;28;1622;-74
2022/01/29 17:58:18;;;;;;;6.75;6.15;;;18.30;99.90;;;;;;348012;28;10226;-73
2022/01/29 17:58:29;;;;;;;6.55;6.00;;;18.30;99.90;;;;;;349370;28;1769;-72
2022/01/29 17:58:41;;;;;;;6.43;5.82;;;18.30;99.90;;;;;;349540;28;1638;-74
2022/01/29 17:58:52;;;;;;;7.53;6.03;;;18.30;99.90;;;;;;349454;28;1453;-76
2022/01/29 17:59:03;;;;;;;9.88;6.13;;;18.40;99.90;;;;;;349453;28;1737;-72
2022/01/29 17:59:14;;;;;;;10.43;5.82;;;18.30;99.90;;;;;;349462;28;1595;-72
2022/01/29 17:59:25;;;;;;;11.25;5.80;;;18.30;99.90;;;;;;349471;28;1623;-72
2022/01/29 17:59:37;;;;;;;9.15;5.90;;;18.30;99.90;;;;;;349469;28;1599;-72
2022/01/29 17:59:48;;;;;;;15.32;5.95;;;18.30;99.90;;;;;;349341;28;1451;-73
2022/01/29 17:59:59;;;;;;;13.43;6.10;;;18.30;99.90;;;;;;349447;28;1595;-73
2022/01/29 18:00:11;;;;;;;12.10;6.10;;;18.30;99.90;;;;;;349519;28;1599;-73
2022/01/29 18:00:22;;;;;;;6.78;6.18;;;18.30;99.90;;;;;;349638;28;1439;-73
2022/01/29 18:00:34;;;;;;;6.68;6.07;;;18.30;99.90;;;;;;349491;28;1733;-72
2022/01/29 18:00:46;;;;;;;9.13;8.35;;;18.30;99.90;;;;;;349590;28;1769;-74
2022/01/29 18:00:58;;;;;;;10.35;9.25;;;18.30;99.90;;;;;;349498;28;1588;-76
2022/01/29 18:01:09;;;;;;;10.73;9.43;;;18.20;99.90;;;;;;349458;28;1455;-72
2022/01/29 18:01:20;;;;;;;12.02;10.55;;;18.30;99.90;;;;;;347961;28;10253;-73
2022/01/29 18:01:32;;;;;;;17.40;15.77;;;18.20;99.90;;;;;;349532;28;1749;-73
2022/01/29 18:01:43;;;;;;;22.45;20.45;;;18.20;99.90;;;;;;349510;28;1616;-78
2022/01/29 18:01:54;;;;;;;27.75;25.25;;;18.20;99.90;;;;;;349357;28;1790;-73
2022/01/29 18:02:07;;;;;;;22.15;20.25;;;18.10;99.90;;;;;;349380;28;1580;-75
2022/01/29 18:02:18;;;;;;;10.07;9.18;;;17.90;99.90;;;;;;349463;28;1109;-72
2022/01/29 18:02:29;;;;;;;7.35;6.68;;;17.70;99.90;;;;;;349396;28;1935;-73
2022/01/29 18:02:41;;;;;;;7.72;7.03;;;17.50;99.90;;;;;;349287;28;1547;-73
2022/01/29 18:02:52;;;;;;;10.23;7.93;;;17.40;99.90;;;;;;349294;28;1629;-75
2022/01/29 18:03:04;;;;;;;10.35;8.00;;;17.20;99.90;;;;;;348869;28;1694;-73
2022/01/29 18:03:15;;;;;;;10.38;8.15;;;17.10;99.90;;;;;;349249;28;1828;-72
2022/01/29 18:03:26;;;;;;;8.73;8.02;;;16.90;99.90;;;;;;349277;28;1705;-73
2022/01/29 18:03:37;;;;;;;9.02;8.27;;;16.80;99.90;;;;;;347945;28;1812;-75
2022/01/29 18:03:48;;;;;;;9.07;8.27;;;16.60;99.90;;;;;;347953;28;1608;-73
2022/01/29 18:04:01;;;;;;;9.38;8.52;;;16.50;99.90;;;;;;347628;28;10373;-73
2022/01/29 18:04:12;;;;;;;9.23;8.45;;;16.30;99.90;;;;;;351648;28;1566;-73
2022/01/29 18:04:23;;;;;;;9.50;8.70;;;16.20;99.90;;;;;;352062;28;1797;-76
2022/01/29 18:04:36;;;;;;;9.45;8.70;;;16.10;99.90;;;;;;352180;28;1614;-74
2022/01/29 18:04:47;;;;;;;9.63;8.82;;;15.90;99.90;;;;;;351701;28;1609;-76
2022/01/29 18:05:00;;;;;;;9.60;8.82;;;15.80;99.90;;;;;;350408;28;1589;-80
2022/01/29 18:05:12;;;;;;;9.82;8.95;;;15.70;99.90;;;;;;350697;28;1586;-73
2022/01/29 18:05:24;;;;;;;10.10;9.15;;;15.50;99.90;;;;;;350586;28;1681;-77
2022/01/29 18:05:35;;;;;;;10.00;9.05;;;15.40;99.90;;;;;;350725;28;1582;-77
2022/01/29 18:05:46;;;;;;;10.00;9.00;;;15.30;99.90;;;;;;350734;28;1555;-73
2022/01/29 18:05:57;;;;;;;10.20;9.25;;;15.20;99.90;;;;;;350609;28;1890;-76
2022/01/29 18:06:08;;;;;;;10.07;9.18;;;15.10;99.90;;;;;;350737;28;1622;-74
2022/01/29 18:06:20;;;;;;;10.38;9.48;;;15.00;99.90;;;;;;350801;28;1645;-72
2022/01/29 18:06:31;;;;;;;10.30;9.38;;;15.00;99.90;;;;;;350694;28;1454;-73
2022/01/29 18:06:42;;;;;;;10.32;9.43;;;14.90;99.90;;;;;;350808;28;1770;-75
2022/01/29 18:06:53;;;;;;;10.48;9.57;;;14.80;99.90;;;;;;350775;28;1639;-73
2022/01/29 18:07:04;;;;;;;10.57;9.73;;;14.70;99.90;;;;;;350555;28;1562;-77
2022/01/29 18:07:15;;;;;;;11.05;10.15;;;14.70;99.90;;;;;;350750;28;1791;-78
2022/01/29 18:07:26;;;;;;;11.10;10.20;;;14.60;99.90;;;;;;350681;28;1596;-77
2022/01/29 18:07:37;;;;;;;10.88;9.95;;;14.60;99.90;;;;;;350754;28;1831;-73
2022/01/29 18:07:49;;;;;;;10.85;9.85;;;14.50;99.90;;;;;;350741;28;1552;-72
2022/01/29 18:08:00;;;;;;;10.38;9.25;;;14.40;99.90;;;;;;350563;28;1917;-73
2022/01/29 18:08:11;;;;;;;10.27;9.18;;;14.30;99.90;;;;;;350709;28;1704;-73
2022/01/29 18:08:23;;;;;;;10.35;9.25;;;14.20;99.90;;;;;;347055;28;11025;-73
2022/01/29 18:08:34;;;;;;;10.60;9.65;;;14.20;99.90;;;;;;350572;28;1541;-73
2022/01/29 18:08:45;;;;;;;11.07;9.98;;;14.10;99.90;;;;;;350760;28;1738;-73
2022/01/29 18:08:56;;;;;;;11.20;10.10;;;14.10;99.90;;;;;;350719;28;1493;-73
2022/01/29 18:09:07;;;;;;;11.52;10.32;;;14.10;99.90;;;;;;350786;28;1649;-74
2022/01/29 18:09:19;;;;;;;11.52;10.43;;;14.00;99.90;;;;;;350727;28;1571;-73
2022/01/29 18:09:30;;;;;;;11.02;10.07;;;14.00;99.90;;;;;;350727;28;1586;-72
2022/01/29 18:09:41;;;;;;;10.48;9.68;;;14.00;99.90;;;;;;350777;28;1706;-75
2022/01/29 18:09:52;;;;;;;10.63;9.63;;;13.90;99.90;;;;;;350807;28;1625;-74
2022/01/29 18:10:04;;;;;;;10.77;9.68;;;13.90;99.90;;;;;;350506;28;1603;-73
2022/01/29 18:10:15;;;;;;;10.88;9.73;;;13.90;99.90;;;;;;350707;28;1607;-73
2022/01/29 18:10:26;;;;;;;11.30;10.18;;;13.80;99.90;;;;;;350809;28;1769;-73
2022/01/29 18:10:38;;;;;;;11.52;10.40;;;13.80;99.90;;;;;;350728;28;1615;-73
2022/01/29 18:10:51;;;;;;;11.63;10.45;;;13.80;99.90;;;;;;350836;28;1427;-74
2022/01/29 18:11:04;;;;;;;11.15;10.15;;;13.80;99.90;;;;;;349926;28;20880;-74
2022/01/29 18:11:15;;;;;;;11.00;10.00;;;13.70;99.90;;;;;;350775;28;1451;-75
2022/01/29 18:11:26;;;;;;;10.95;9.85;;;13.70;99.90;;;;;;350778;28;1870;-77
2022/01/29 18:11:39;;;;;;;11.43;10.32;;;13.70;99.90;;;;;;350801;28;1940;-73
2022/01/29 18:11:50;;;;;;;11.00;10.02;;;13.60;99.90;;;;;;350743;28;1817;-73
2022/01/29 18:12:07;;;;;;;10.43;9.45;;;13.60;99.90;;;;;;350540;28;1806;-74
2022/01/29 18:12:18;;;;;;;10.68;9.50;;;13.60;99.90;;;;;;348576;28;67953;-72
2022/01/29 18:12:29;;;;;;;10.48;9.45;;;13.60;99.90;;;;;;350673;28;1778;-73
2022/01/29 18:12:42;;;;;;;10.30;9.40;;;13.50;99.90;;;;;;350776;28;1688;-73
2022/01/29 18:12:53;;;;;;;11.18;10.18;;;13.60;99.90;;;;;;350708;28;1612;-73
2022/01/29 18:13:06;;;;;;;12.07;11.00;;;13.50;99.90;;;;;;350586;28;2019;-78
2022/01/29 18:13:18;;;;;;;11.38;10.38;;;13.50;99.90;;;;;;350741;28;1467;-73
2022/01/29 18:13:29;;;;;;;11.32;10.27;;;13.50;99.90;;;;;;350800;28;1662;-71
2022/01/29 18:13:43;;;;;;;11.43;10.32;;;13.50;99.90;;;;;;350784;28;1603;-73
2022/01/29 18:13:54;;;;;;;11.35;10.35;;;13.40;99.90;;;;;;350108;28;21334;-73
2022/01/29 18:14:05;;;;;;;11.15;10.25;;;13.40;99.90;;;;;;350567;28;1593;-73
2022/01/29 18:14:16;;;;;;;11.30;10.40;;;13.40;99.90;;;;;;350786;28;1533;-74
2022/01/29 18:14:27;;;;;;;11.10;10.18;;;13.40;99.90;;;;;;350731;28;1675;-74
2022/01/29 18:14:38;;;;;;;11.25;10.20;;;13.40;99.90;;;;;;350854;28;1801;-74
2022/01/29 18:14:49;;;;;;;11.18;10.07;;;13.40;99.90;;;;;;350690;28;1766;-74
2022/01/29 18:15:02;;;;;;;10.98;9.95;;;13.40;99.90;;;;;;350555;28;1600;-74
2022/01/29 18:15:13;;;;;;;10.88;9.98;;;13.30;99.90;;;;;;350728;28;1815;-73
2022/01/29 18:15:24;;;;;;;11.25;10.35;;;13.30;99.90;;;;;;350804;28;1677;-73
2022/01/29 18:15:35;;;;;;;11.75;10.80;;;13.30;99.90;;;;;;350706;28;1551;-74
2022/01/29 18:15:46;;;;;;;11.68;10.68;;;13.30;99.90;;;;;;350754;28;1799;-74
2022/01/29 18:15:57;;;;;;;11.48;10.45;;;13.30;99.90;;;;;;350618;28;1677;-74
2022/01/29 18:16:08;;;;;;;10.93;10.02;;;13.30;99.90;;;;;;350730;28;1581;-74
2022/01/29 18:16:21;;;;;;;10.80;9.88;;;13.30;99.90;;;;;;350731;28;1943;-74
2022/01/29 18:16:32;;;;;;;11.23;10.32;;;13.30;99.90;;;;;;350747;28;1447;-74
2022/01/29 18:16:43;;;;;;;11.98;10.88;;;13.30;99.90;;;;;;350808;28;1727;-74
2022/01/29 18:16:55;;;;;;;11.57;10.48;;;13.30;99.90;;;;;;350721;28;1583;-74
2022/01/29 18:17:06;;;;;;;11.50;10.35;;;13.30;99.90;;;;;;350760;28;1752;-74
2022/01/29 18:17:19;;;;;;;11.57;10.38;;;13.30;99.90;;;;;;350907;28;1082;-73
2022/01/29 18:17:30;;;;;;;11.90;10.80;;;13.20;99.90;;;;;;350747;28;1610;-73
2022/01/29 18:17:41;;;;;;;11.77;10.68;;;13.30;99.90;;;;;;350713;28;1618;-73
2022/01/29 18:17:52;;;;;;;11.13;10.13;;;13.30;99.90;;;;;;350735;28;1691;-73
2022/01/29 18:18:03;;;;;;;11.25;10.35;;;13.30;99.90;;;;;;350512;28;1550;-73
2022/01/29 18:18:15;;;;;;;11.50;10.57;;;13.20;99.90;;;;;;350757;28;1697;-73
2022/01/29 18:18:27;;;;;;;11.93;10.90;;;13.20;99.90;;;;;;350724;28;1597;-73
2022/01/29 18:18:38;;;;;;;11.60;10.57;;;13.20;99.90;;;;;;350803;28;1581;-73
2022/01/29 18:18:48;;;;;;;10.93;10.02;;;13.20;99.90;;;;;;350741;28;1588;-73
2022/01/29 18:19:01;;;;;;;10.68;9.77;;;13.20;99.90;;;;;;350559;28;1820;-73
2022/01/29 18:19:12;;;;;;;10.88;9.90;;;13.20;99.90;;;;;;350701;28;1598;-74
2022/01/29 18:19:24;;;;;;;11.10;10.10;;;13.20;99.90;;;;;;350883;28;1156;-74
2022/01/29 18:19:35;;;;;;;10.88;9.98;;;13.20;99.90;;;;;;350788;28;1451;-73
2022/01/29 18:19:46;;;;;;;11.07;10.18;;;13.20;99.90;;;;;;350725;28;1683;-73
2022/01/29 18:19:57;;;;;;;11.20;10.20;;;13.20;99.90;;;;;;350703;28;1593;-73
2022/01/29 18:20:09;;;;;;;11.57;10.48;;;13.20;99.90;;;;;;350766;28;1633;-73
2022/01/29 18:20:21;;;;;;;11.32;10.32;;;13.20;99.90;;;;;;350819;28;1746;-73
2022/01/29 18:20:32;;;;;;;11.50;10.50;;;13.20;99.90;;;;;;350734;28;1597;-73
2022/01/29 18:20:43;;;;;;;11.60;10.45;;;13.20;99.90;;;;;;350787;28;1728;-73
2022/01/29 18:20:54;;;;;;;11.35;10.27;;;13.20;99.90;;;;;;350733;28;1569;-73
2022/01/29 18:21:05;;;;;;;11.32;10.32;;;13.20;99.90;;;;;;350598;28;1711;-73
2022/01/29 18:21:16;;;;;;;11.60;10.60;;;13.20;99.90;;;;;;350657;28;1760;-73
2022/01/29 18:21:28;;;;;;;11.65;10.65;;;13.20;99.90;;;;;;350575;28;1739;-73
2022/01/29 18:21:39;;;;;;;11.60;10.60;;;13.20;99.90;;;;;;350648;28;1622;-73
2022/01/29 18:21:51;;;;;;;11.80;10.90;;;13.20;99.90;;;;;;350608;28;1807;-74
2022/01/29 18:22:03;;;;;;;11.98;10.98;;;13.10;99.90;;;;;;350598;28;1063;-74
2022/01/29 18:22:15;;;;;;;11.88;10.88;;;13.20;99.90;;;;;;350586;28;1669;-74
2022/01/29 18:22:26;;;;;;;11.52;10.52;;;13.20;99.90;;;;;;350644;28;1772;-74
2022/01/29 18:22:39;;;;;;;11.05;10.00;;;13.20;99.90;;;;;;350625;28;1431;-74
2022/01/29 18:22:50;;;;;;;10.52;9.55;;;13.20;99.90;;;;;;350644;28;1591;-74
2022/01/29 18:23:01;;;;;;;10.73;9.82;;;13.10;99.90;;;;;;350507;28;1668;-74
2022/01/29 18:23:12;;;;;;;11.32;10.38;;;13.20;99.90;;;;;;350692;28;1819;-73
2022/01/29 18:23:24;;;;;;;11.80;10.80;;;13.10;99.90;;;;;;350784;28;1629;-73
2022/01/29 18:23:35;;;;;;;11.45;10.45;;;13.10;99.90;;;;;;350725;28;1618;-73
2022/01/29 18:23:47;;;;;;;11.23;10.27;;;13.20;99.90;;;;;;350718;28;1566;-73
2022/01/29 18:23:58;;;;;;;11.40;10.30;;;13.10;99.90;;;;;;350548;28;1609;-73
2022/01/29 18:24:09;;;;;;;11.32;10.30;;;13.10;99.90;;;;;;350839;28;1621;-73
2022/01/29 18:24:20;;;;;;;10.75;9.90;;;13.10;99.90;;;;;;350761;28;1574;-73
2022/01/29 18:24:32;;;;;;;10.65;9.85;;;13.10;99.90;;;;;;350744;28;1701;-73
2022/01/29 18:24:43;;;;;;;10.52;9.73;;;13.10;99.90;;;;;;350707;28;1813;-73
2022/01/29 18:24:54;;;;;;;11.07;10.18;;;13.10;99.90;;;;;;350720;28;1593;-74
2022/01/29 18:25:05;;;;;;;11.55;10.63;;;13.10;99.90;;;;;;350516;28;1593;-74
2022/01/29 18:25:16;;;;;;;11.68;10.68;;;13.10;99.90;;;;;;350723;28;1617;-74
2022/01/29 18:25:29;;;;;;;11.35;10.45;;;13.10;99.90;;;;;;350782;28;1569;-74
2022/01/29 18:25:41;;;;;;;11.30;10.38;;;13.10;99.90;;;;;;350812;28;1668;-73
2022/01/29 18:25:52;;;;;;;10.88;9.98;;;13.10;99.90;;;;;;350794;28;1586;-73
2022/01/29 18:26:07;;;;;;;10.80;9.93;;;13.10;99.90;;;;;;350565;28;1577;-73
2022/01/29 18:26:19;;;;;;;11.05;10.02;;;13.10;99.90;;;;;;350125;28;20627;-73
2022/01/29 18:26:31;;;;;;;11.55;10.35;;;13.10;99.90;;;;;;350790;28;1616;-73
2022/01/29 18:26:44;;;;;;;11.43;10.38;;;13.10;99.90;;;;;;350694;28;1638;-73
2022/01/29 18:26:59;;;;;;;11.70;10.60;;;13.10;99.90;;;;;;350693;28;1728;-73
2022/01/29 18:27:12;;;;;;;11.65;10.55;;;13.10;99.90;;;;;;349324;28;43810;-73
2022/01/29 18:27:26;;;;;;;11.35;10.35;;;13.10;99.90;;;;;;350763;28;1628;-73
2022/01/29 18:27:44;;;;;;;10.77;9.77;;;13.10;99.90;;;;;;350136;28;20705;-73
2022/01/29 18:27:55;;;;;;;10.55;9.63;;;13.10;99.90;;;;;;348558;28;66623;-73
2022/01/29 18:28:14;;;;;;;10.40;9.50;;;13.10;99.90;;;;;;350585;28;1245;-73
2022/01/29 18:28:25;;;;;;;10.32;9.43;;;13.10;99.90;;;;;;348796;28;59517;-73
2022/01/29 18:28:36;;;;;;;10.38;9.52;;;13.10;99.90;;;;;;350704;28;1931;-73
2022/01/29 18:28:47;;;;;;;10.77;9.88;;;13.10;99.90;;;;;;350759;28;1792;-73
2022/01/29 18:28:59;;;;;;;11.48;9.98;;;13.10;99.90;;;;;;350576;28;1510;-73
2022/01/29 18:29:11;;;;;;;11.48;9.68;;;13.10;99.90;;;;;;350665;28;1756;-73
2022/01/29 18:29:22;;;;;;;11.77;9.73;;;13.10;99.90;;;;;;350735;28;1414;-73
2022/01/29 18:29:34;;;;;;;10.65;9.65;;;13.10;99.90;;;;;;350709;28;1707;-73
2022/01/29 18:29:46;;;;;;;10.48;9.60;;;13.10;99.90;;;;;;350707;28;1733;-73
2022/01/29 18:29:57;;;;;;;10.27;9.38;;;13.10;99.90;;;;;;350493;28;1832;-73
2022/01/29 18:30:09;;;;;;;10.02;9.13;;;13.10;99.90;;;;;;350767;28;1556;-73
2022/01/29 18:30:21;;;;;;;9.73;8.90;;;13.10;99.90;;;;;;350726;28;1691;-73
2022/01/29 18:30:32;;;;;;;10.00;9.20;;;13.10;99.90;;;;;;350678;28;1585;-73
2022/01/29 18:30:44;;;;;;;10.82;9.80;;;13.10;99.90;;;;;;350731;28;1673;-73
2022/01/29 18:30:55;;;;;;;10.80;9.70;;;13.10;99.90;;;;;;350745;28;1484;-73
2022/01/29 18:31:06;;;;;;;10.40;9.30;;;13.10;99.90;;;;;;350662;28;1616;-73
2022/01/29 18:31:17;;;;;;;10.05;9.15;;;13.10;99.90;;;;;;350685;28;1570;-73
2022/01/29 18:31:30;;;;;;;10.32;9.43;;;13.10;99.90;;;;;;350960;28;1701;-73
2022/01/29 18:31:41;;;;;;;10.82;9.93;;;13.10;99.90;;;;;;350909;28;1487;-72
2022/01/29 18:31:52;;;;;;;10.80;9.93;;;13.10;99.90;;;;;;351339;28;2014;-74
2022/01/29 18:32:04;;;;;;;10.95;9.95;;;13.10;99.90;;;;;;350767;28;1581;-74
2022/01/29 18:32:15;;;;;;;10.92;9.88;;;13.10;99.90;;;;;;351234;28;1666;-73
2022/01/29 18:32:26;;;;;;;11.15;10.18;;;13.10;99.90;;;;;;351416;28;1660;-75
2022/01/29 18:32:38;;;;;;;10.68;9.80;;;13.10;99.90;;;;;;351241;28;1842;-75
2022/01/29 18:32:49;;;;;;;10.30;9.50;;;13.10;99.90;;;;;;351543;28;1467;-75
2022/01/29 18:33:01;;;;;;;10.63;9.73;;;13.10;99.90;;;;;;351243;28;1470;-76
2022/01/29 18:33:14;;;;;;;11.13;10.23;;;13.10;99.90;;;;;;351051;28;1731;-73
2022/01/29 18:33:26;;;;;;;10.32;9.50;;;13.10;99.90;;;;;;350585;28;21933;-73
2022/01/29 18:33:37;;;;;;;9.70;9.00;;;13.10;99.90;;;;;;351387;28;1594;-75
2022/01/29 18:33:48;;;;;;;10.07;9.27;;;13.10;99.90;;;;;;351364;28;1502;-77
2022/01/29 18:33:59;;;;;;;10.50;9.60;;;13.10;99.90;;;;;;351205;28;1637;-74
2022/01/29 18:34:10;;;;;;;10.73;9.73;;;13.10;99.90;;;;;;349321;28;11330;-75
2022/01/29 18:34:21;;;;;;;10.85;9.95;;;13.10;99.90;;;;;;351492;28;1604;-74
2022/01/29 18:34:33;;;;;;;11.70;10.68;;;13.20;99.90;;;;;;350669;28;1596;-63
2022/01/29 18:34:44;;;;;;;13.05;11.75;;;13.90;99.90;;;;;;350791;28;1514;-59
2022/01/29 18:34:56;;;;;;;13.60;12.20;;;14.20;99.90;;;;;;350717;28;1598;-59
2022/01/29 18:35:08;;;;;;;12.38;11.20;;;14.50;99.90;;;;;;350777;28;1601;-59
2022/01/29 18:35:19;;;;;;;12.60;10.90;;;14.80;99.90;;;;;;350761;28;1664;-59
2022/01/29 18:35:30;;;;;;;12.10;10.45;;;15.00;99.90;;;;;;350553;28;1565;-59
2022/01/29 18:35:42;;;;;;;12.55;11.18;;;15.20;99.90;;;;;;350656;28;1565;-59
2022/01/29 18:35:54;;;;;;;12.25;11.07;;;15.50;99.90;;;;;;350722;28;1606;-59
2022/01/29 18:36:06;;;;;;;12.07;10.85;;;15.70;99.90;;;;;;350480;28;1645;-59
2022/01/29 18:36:17;;;;;;;11.57;10.38;;;15.80;99.90;;;;;;350712;28;1605;-59
2022/01/29 18:36:28;;;;;;;11.70;10.55;;;16.10;99.90;;;;;;350692;28;1712;-59
2022/01/29 18:36:40;;;;;;;11.50;10.45;;;16.20;99.90;;;;;;350738;28;1831;-59
2022/01/29 18:36:51;;;;;;;11.70;10.60;;;16.50;99.90;;;;;;350664;28;1458;-59
2022/01/29 18:37:02;;;;;;;11.70;10.40;;;16.60;99.90;;;;;;350512;28;1630;-59
2022/01/29 18:37:13;;;;;;;11.63;10.43;;;16.70;99.90;;;;;;350768;28;1778;-59
2022/01/29 18:37:25;;;;;;;12.10;10.77;;;16.90;99.90;;;;;;350679;28;1756;-59
2022/01/29 18:37:36;;;;;;;12.18;11.07;;;17.10;99.90;;;;;;350632;28;1809;-59
2022/01/29 18:37:48;;;;;;;12.60;11.35;;;17.20;99.90;;;;;;350753;28;1424;-59
2022/01/29 18:37:58;;;;;;;12.77;11.52;;;17.30;99.90;;;;;;350486;28;1427;-60
2022/01/29 18:38:13;;;;;;;12.48;11.27;;;17.50;99.90;;;;;;350675;28;1595;-60
2022/01/29 18:38:25;;;;;;;12.10;10.88;;;17.60;99.90;;;;;;349328;28;43683;-59
2022/01/29 18:38:37;;;;;;;11.90;10.70;;;17.70;99.90;;;;;;350754;28;1727;-60
2022/01/29 18:38:48;;;;;;;11.95;10.23;;;17.70;99.90;;;;;;350732;28;1613;-60
2022/01/29 18:38:59;;;;;;;12.18;10.45;;;17.90;99.90;;;;;;350512;28;1462;-60
2022/01/29 18:39:13;;;;;;;12.32;10.70;;;18.00;99.90;;;;;;350755;28;1609;-60
2022/01/29 18:39:25;;;;;;;11.57;10.57;;;18.10;99.90;;;;;;350724;28;1645;-60
2022/01/29 18:39:42;;;;;;;11.07;10.07;;;18.20;99.90;;;;;;350722;28;1467;-57
2022/01/29 18:39:58;;;;;;;10.77;9.68;;;18.30;99.90;;;;;;348551;28;66352;-57
2022/01/29 18:40:10;;;;;;;11.52;10.35;;;18.40;99.90;;;;;;349263;28;44673;-58
2022/01/29 18:40:26;;;;;;;11.55;10.50;;;18.50;99.90;;;;;;350752;28;1613;-58
2022/01/29 18:40:40;;;;;;;12.98;10.82;;;18.60;99.90;;;;;;348503;28;67836;-58
2022/01/29 18:40:52;;;;;;;13.30;10.85;;;18.70;99.90;;;;;;350669;28;1633;-58
2022/01/29 18:41:06;;;;;;;11.88;10.70;;;18.70;99.90;;;;;;350641;28;1070;-57
2022/01/29 18:41:17;;;;;;;11.82;10.73;;;18.80;99.90;;;;;;350154;28;20374;-57
2022/01/29 18:41:28;;;;;;;12.00;10.90;;;18.90;99.90;;;;;;350694;28;1710;-57
2022/01/29 18:41:39;;;;;;;12.13;11.00;;;18.90;99.90;;;;;;350741;28;1600;-57
2022/01/29 18:41:50;;;;;;;11.88;10.68;;;18.90;99.90;;;;;;350709;28;1649;-57
2022/01/29 18:42:01;;;;;;;11.45;10.23;;;19.00;99.90;;;;;;350548;28;1764;-57
2022/01/29 18:42:12;;;;;;;11.40;9.80;;;19.00;99.90;;;;;;350638;28;1659;-57
2022/01/29 18:42:25;;;;;;;12.25;9.90;;;19.10;99.90;;;;;;350725;28;2002;-57
2022/01/29 18:42:36;;;;;;;11.35;10.18;;;19.10;99.90;;;;;;350684;28;1455;-57
2022/01/29 18:42:49;;;;;;;11.80;10.63;;;19.10;99.90;;;;;;350729;28;1851;-57
2022/01/29 18:43:00;;;;;;;11.45;10.45;;;19.20;99.90;;;;;;350517;28;1589;-57
2022/01/29 18:43:14;;;;;;;11.25;10.35;;;19.20;99.90;;;;;;350620;28;1537;-57
2022/01/29 18:43:26;;;;;;;10.80;9.90;;;19.20;99.90;;;;;;350160;28;20711;-57
2022/01/29 18:43:38;;;;;;;10.73;9.73;;;19.30;99.90;;;;;;350719;28;1739;-57
2022/01/29 18:43:49;;;;;;;10.82;9.80;;;19.30;99.90;;;;;;350717;28;1466;-57
2022/01/29 18:44:00;;;;;;;11.02;9.98;;;19.40;99.90;;;;;;350480;28;1629;-57
2022/01/29 18:44:12;;;;;;;10.93;9.93;;;19.40;99.90;;;;;;350715;28;1567;-57
2022/01/29 18:44:23;;;;;;;11.23;10.20;;;19.40;99.90;;;;;;350716;28;1602;-57
2022/01/29 18:44:34;;;;;;;11.10;10.05;;;19.40;99.90;;;;;;350655;28;1554;-57
2022/01/29 18:44:45;;;;;;;11.20;10.13;;;19.40;99.90;;;;;;350741;28;1976;-57
2022/01/29 18:44:56;;;;;;;11.47;10.40;;;19.50;99.90;;;;;;350631;28;1723;-57
2022/01/29 18:45:11;;;;;;;11.27;10.18;;;19.50;99.90;;;;;;350865;28;1083;-57
2022/01/29 18:45:22;;;;;;;11.18;10.18;;;19.50;99.90;;;;;;349336;28;44281;-57
2022/01/29 18:45:33;;;;;;;11.52;10.45;;;19.50;99.90;;;;;;350648;28;1459;-57
2022/01/29 18:45:45;;;;;;;11.40;10.30;;;19.50;99.90;;;;;;350654;28;1664;-57
2022/01/29 18:45:57;;;;;;;11.40;10.30;;;19.50;99.90;;;;;;350635;28;1659;-57
2022/01/29 18:46:08;;;;;;;10.90;9.88;;;19.60;99.90;;;;;;350738;28;1632;-57
2022/01/29 18:46:21;;;;;;;10.25;9.25;;;19.60;99.90;;;;;;350642;28;1922;-57
2022/01/29 18:46:33;;;;;;;10.68;9.57;;;19.60;99.90;;;;;;350683;28;1584;-57
2022/01/29 18:46:45;;;;;;;10.80;9.70;;;19.60;99.90;;;;;;350842;28;1069;-57
2022/01/29 18:46:55;;;;;;;11.45;9.93;;;19.60;99.90;;;;;;350749;28;1761;-57
2022/01/29 18:47:06;;;;;;;12.13;9.70;;;19.60;99.90;;;;;;350692;28;1455;-58
2022/01/29 18:47:17;;;;;;;11.65;9.80;;;19.60;99.90;;;;;;350787;28;1718;-58
2022/01/29 18:47:29;;;;;;;12.25;10.07;;;19.70;99.90;;;;;;350683;28;1572;-57
2022/01/29 18:47:42;;;;;;;11.80;10.30;;;19.60;99.90;;;;;;349661;27;11211;-57
2022/01/29 18:47:54;;;;;;;11.02;9.82;;;19.70;99.90;;;;;;350718;28;1443;-57
2022/01/29 18:48:06;;;;;;;11.23;10.07;;;19.70;99.90;;;;;;350512;28;1693;-57
2022/01/29 18:48:17;;;;;;;11.32;10.23;;;19.70;99.90;;;;;;350534;28;1609;-57
2022/01/29 18:48:28;;;;;;;11.57;10.57;;;19.70;99.90;;;;;;350609;28;1658;-57
2022/01/29 18:48:39;;;;;;;11.25;10.20;;;19.60;99.90;;;;;;350787;28;1634;-57
2022/01/29 18:48:51;;;;;;;10.88;9.70;;;19.70;99.90;;;;;;350584;28;1672;-57
2022/01/29 18:49:03;;;;;;;13.18;9.95;;;19.70;99.90;;;;;;350470;28;1647;-57
2022/01/29 18:49:14;;;;;;;13.77;10.25;;;19.70;99.90;;;;;;350640;28;1686;-57
2022/01/29 18:49:25;;;;;;;13.43;10.30;;;19.70;99.90;;;;;;350722;28;1553;-57
2022/01/29 18:49:36;;;;;;;11.38;9.82;;;19.70;99.90;;;;;;350707;28;1577;-57
2022/01/29 18:49:47;;;;;;;10.98;9.70;;;19.70;99.90;;;;;;350696;28;1697;-57
2022/01/29 18:49:58;;;;;;;10.88;9.80;;;19.70;99.90;;;;;;350483;28;2144;-58
2022/01/29 18:50:11;;;;;;;10.90;9.80;;;19.70;99.90;;;;;;350716;28;1745;-58
2022/01/29 18:50:22;;;;;;;10.85;9.85;;;19.70;99.90;;;;;;350670;28;1473;-58
2022/01/29 18:50:33;;;;;;;11.02;9.93;;;19.70;99.90;;;;;;350598;28;1554;-58
2022/01/29 18:50:44;;;;;;;11.05;9.88;;;19.70;99.90;;;;;;350710;28;1698;-58
2022/01/29 18:50:56;;;;;;;10.52;9.52;;;19.70;99.90;;;;;;350674;28;1778;-58
2022/01/29 18:51:08;;;;;;;10.20;9.32;;;19.70;99.90;;;;;;350631;28;1515;-58
2022/01/29 18:51:20;;;;;;;10.25;9.32;;;19.70;99.90;;;;;;350621;28;2042;-58
2022/01/29 18:51:31;;;;;;;10.27;9.25;;;19.70;99.90;;;;;;350643;28;1571;-57
2022/01/29 18:51:42;;;;;;;11.68;9.63;;;19.70;99.90;;;;;;350715;28;1585;-57
2022/01/29 18:51:53;;;;;;;11.65;9.55;;;19.70;99.90;;;;;;350598;28;1780;-58
2022/01/29 18:52:05;;;;;;;10.75;9.65;;;19.70;99.90;;;;;;350447;28;1542;-58
2022/01/29 18:52:16;;;;;;;10.88;9.93;;;19.70;99.90;;;;;;350641;28;1638;-59
2022/01/29 18:52:27;;;;;;;11.00;9.90;;;19.70;99.90;;;;;;350700;28;1581;-59
2022/01/29 18:52:39;;;;;;;11.10;9.90;;;19.70;99.90;;;;;;350753;28;1723;-59
2022/01/29 18:52:50;;;;;;;14.27;9.77;;;19.70;99.90;;;;;;350698;28;1629;-59
2022/01/29 18:53:01;;;;;;;13.52;9.85;;;19.70;99.90;;;;;;350527;28;1760;-59
2022/01/29 18:53:12;;;;;;;14.80;9.98;;;19.70;99.90;;;;;;350733;28;1618;-59
2022/01/29 18:53:26;;;;;;;11.52;9.85;;;19.70;99.90;;;;;;350737;28;1589;-59
2022/01/29 18:53:40;;;;;;;12.88;9.63;;;19.70;99.90;;;;;;350102;28;21122;-59
2022/01/29 18:53:51;;;;;;;11.98;9.27;;;19.70;99.90;;;;;;350078;28;20787;-59
2022/01/29 18:54:02;;;;;;;10.00;8.65;;;19.70;99.90;;;;;;349843;28;2056;-59
2022/01/29 18:54:13;;;;;;;10.18;8.95;;;19.70;99.90;;;;;;349855;28;2722;-59
2022/01/29 18:54:24;;;;;;;11.33;9.67;;;19.70;99.90;;;;;;349246;28;1574;-60
2022/01/29 18:54:35;;;;;;;11.20;9.85;;;19.70;99.90;;;;;;349280;28;1611;-60
2022/01/29 18:54:46;;;;;;;10.55;9.23;;;19.70;99.90;;;;;;349207;28;1729;-60
2022/01/29 18:54:58;;;;;;;9.82;8.77;;;19.70;99.90;;;;;;349118;28;1566;-60
2022/01/29 18:55:10;;;;;;;11.20;9.07;;;19.70;99.90;;;;;;349149;28;1571;-60
2022/01/29 18:55:21;;;;;;;10.65;9.40;;;19.70;99.90;;;;;;349297;28;1602;-60
2022/01/29 18:55:32;;;;;;;11.00;9.13;;;19.70;99.90;;;;;;349220;28;1858;-61
2022/01/29 18:55:43;;;;;;;9.85;8.75;;;19.70;99.90;;;;;;349295;28;1808;-59
2022/01/29 18:55:55;;;;;;;9.50;8.37;;;19.70;99.90;;;;;;349155;28;1747;-58
2022/01/29 18:56:08;;;;;;;9.63;8.68;;;19.70;99.90;;;;;;349147;28;1515;-58
2022/01/29 18:56:21;;;;;;;11.27;9.30;;;19.60;99.90;;;;;;349366;28;1817;-58
2022/01/29 18:56:32;;;;;;;10.93;9.27;;;19.60;99.90;;;;;;348640;28;20859;-58
2022/01/29 18:56:43;;;;;;;12.98;9.10;;;19.70;99.90;;;;;;349341;28;1709;-58
2022/01/29 18:56:54;;;;;;;11.60;8.73;;;19.60;99.90;;;;;;349258;28;1612;-59
2022/01/29 18:57:05;;;;;;;10.80;8.70;;;19.60;99.90;;;;;;349127;28;1547;-59